sensor_id;sensor_type;location;lat;lon;timestamp;pressure;altitude;pressure_sealevel;temperature;humidity
14041;BME280;7095;51.388;6.196;2022-07-23T00:02:03;53369.88;;;-145.32;100.00
14041;BME280;7095;51.388;6.196;2022-07-23T00:04:34;53340.06;;;-145.32;100.00
14041;BME280;7095;51.388;6.196;2022-07-23T00:07:02;53340.06;;;-145.32;100.00
14041;BME280;7095;51.388;6.196;2022-07-23T00:09:32;53367.91;;;-145.32;100.00
14041;BME280;7095;51.388;6.196;2022-07-23T00:12:01;53363.91;;;-145.32;100.00
14041;BME280;7095;51.388;6.196;2022-07-23T00:14:29;53348.00;;;-145.32;100.00
14041;BME280;7095;51.388;6.196;2022-07-23T00:16:59;53352.00;;;-145.32;100.00
14041;BME280;7095;51.388;6.196;2022-07-23T00:19:28;53375.84;;;-145.32;100.00
14041;BME280;7095;51.388;6.196;2022-07-23T00:21:57;53373.84;;;-145.32;100.00
14041;BME280;7095;51.388;6.196;2022-07-23T00:24:26;53348.00;;;-145.32;100.00
14041;BME280;7095;51.388;6.196;2022-07-23T00:26:56;53373.84;;;-145.32;100.00
14041;BME280;7095;51.388;6.196;2022-07-23T00:29:24;53387.78;;;-145.32;100.00
14041;BME280;7095;51.388;6.196;2022-07-23T00:31:53;53367.91;;;-145.32;100.00
14041;BME280;7095;51.388;6.196;2022-07-23T00:34:22;53403.69;;;-145.32;100.00
14041;BME280;7095;51.388;6.196;2022-07-23T00:36:50;53397.72;;;-145.32;100.00
14041;BME280;7095;51.388;6.196;2022-07-23T00:39:20;53363.91;;;-145.32;100.00
14041;BME280;7095;51.388;6.196;2022-07-23T00:41:51;53411.63;;;-145.32;100.00
14041;BME280;7095;51.388;6.196;2022-07-23T00:44:22;53383.78;;;-145.32;100.00
14041;BME280;7095;51.388;6.196;2022-07-23T00:46:52;53391.75;;;-145.32;100.00
14041;BME280;7095;51.388;6.196;2022-07-23T00:49:21;53391.75;;;-145.32;100.00
14041;BME280;7095;51.388;6.196;2022-07-23T00:51:51;53443.44;;;-145.32;100.00
14041;BME280;7095;51.388;6.196;2022-07-23T00:54:22;53413.63;;;-145.32;100.00
14041;BME280;7095;51.388;6.196;2022-07-23T00:56:51;53397.72;;;-145.32;100.00
14041;BME280;7095;51.388;6.196;2022-07-23T00:59:21;53427.53;;;-145.32;100.00
14041;BME280;7095;51.388;6.196;2022-07-23T01:01:50;53401.69;;;-145.32;100.00
14041;BME280;7095;51.388;6.196;2022-07-23T01:04:19;53439.47;;;-145.32;100.00
14041;BME280;7095;51.388;6.196;2022-07-23T01:06:49;53443.44;;;-145.32;100.00
14041;BME280;7095;51.388;6.196;2022-07-23T01:09:18;53437.47;;;-145.32;100.00
14041;BME280;7095;51.388;6.196;2022-07-23T01:11:46;53455.38;;;-145.32;100.00
14041;BME280;7095;51.388;6.196;2022-07-23T01:14:17;53447.41;;;-145.32;100.00
14041;BME280;7095;51.388;6.196;2022-07-23T01:16:48;53435.47;;;-145.32;100.00
14041;BME280;7095;51.388;6.196;2022-07-23T01:19:18;53463.31;;;-145.32;100.00
14041;BME280;7095;51.388;6.196;2022-07-23T01:21:50;53447.41;;;-145.32;100.00
14041;BME280;7095;51.388;6.196;2022-07-23T01:24:20;53463.31;;;-145.32;100.00
14041;BME280;7095;51.388;6.196;2022-07-23T01:26:58;53479.22;;;-145.32;100.00
14041;BME280;7095;51.388;6.196;2022-07-23T01:29:26;53447.41;;;-145.32;100.00
14041;BME280;7095;51.388;6.196;2022-07-23T01:31:57;53439.47;;;-145.32;100.00
14041;BME280;7095;51.388;6.196;2022-07-23T01:34:26;53487.19;;;-145.32;100.00
14041;BME280;7095;51.388;6.196;2022-07-23T01:36:55;53473.25;;;-145.32;100.00
14041;BME280;7095;51.388;6.196;2022-07-23T01:39:25;53477.22;;;-145.32;100.00
14041;BME280;7095;51.388;6.196;2022-07-23T01:41:54;53461.31;;;-145.32;100.00
14041;BME280;7095;51.388;6.196;2022-07-23T01:44:24;53475.25;;;-145.32;100.00
14041;BME280;7095;51.388;6.196;2022-07-23T01:46:52;53483.19;;;-145.32;100.00
14041;BME280;7095;51.388;6.196;2022-07-23T01:49:21;53485.19;;;-145.32;100.00
14041;BME280;7095;51.388;6.196;2022-07-23T01:52:08;53499.09;;;-145.32;100.00
14041;BME280;7095;51.388;6.196;2022-07-23T01:54:45;53497.13;;;-145.32;100.00
14041;BME280;7095;51.388;6.196;2022-07-23T01:57:13;53487.19;;;-145.32;100.00
14041;BME280;7095;51.388;6.196;2022-07-23T01:59:44;53509.03;;;-145.32;100.00
14041;BME280;7095;51.388;6.196;2022-07-23T02:02:14;53511.03;;;-145.32;100.00
14041;BME280;7095;51.388;6.196;2022-07-23T02:04:43;53517.00;;;-145.32;100.00
14041;BME280;7095;51.388;6.196;2022-07-23T02:07:12;53497.13;;;-145.32;100.00
14041;BME280;7095;51.388;6.196;2022-07-23T02:09:41;53495.13;;;-145.32;100.00
14041;BME280;7095;51.388;6.196;2022-07-23T02:12:13;53489.16;;;-145.32;100.00
14041;BME280;7095;51.388;6.196;2022-07-23T02:14:44;53513.03;;;-145.32;100.00
14041;BME280;7095;51.388;6.196;2022-07-23T02:17:12;53485.19;;;-145.32;100.00
14041;BME280;7095;51.388;6.196;2022-07-23T02:19:41;53491.16;;;-145.32;100.00
14041;BME280;7095;51.388;6.196;2022-07-23T02:22:09;53518.97;;;-145.32;100.00
14041;BME280;7095;51.388;6.196;2022-07-23T02:24:38;53517.00;;;-145.32;100.00
14041;BME280;7095;51.388;6.196;2022-07-23T02:27:07;53503.06;;;-145.32;100.00
14041;BME280;7095;51.388;6.196;2022-07-23T02:29:38;53520.97;;;-145.32;100.00
14041;BME280;7095;51.388;6.196;2022-07-23T02:32:06;53515.00;;;-145.32;100.00
14041;BME280;7095;51.388;6.196;2022-07-23T02:34:35;53538.88;;;-145.32;100.00
14041;BME280;7095;51.388;6.196;2022-07-23T02:37:04;53542.84;;;-145.32;100.00
14041;BME280;7095;51.388;6.196;2022-07-23T02:39:33;53570.69;;;-145.32;100.00
14041;BME280;7095;51.388;6.196;2022-07-23T02:42:04;53511.03;;;-145.32;100.00
14041;BME280;7095;51.388;6.196;2022-07-23T02:44:34;53544.81;;;-145.32;100.00
14041;BME280;7095;51.388;6.196;2022-07-23T02:47:04;53564.72;;;-145.32;100.00
14041;BME280;7095;51.388;6.196;2022-07-23T02:49:33;53552.78;;;-145.32;100.00
14041;BME280;7095;51.388;6.196;2022-07-23T02:52:05;53552.78;;;-145.32;100.00
14041;BME280;7095;51.388;6.196;2022-07-23T02:54:33;53574.66;;;-145.32;100.00
14041;BME280;7095;51.388;6.196;2022-07-23T02:57:03;53566.69;;;-145.32;100.00
14041;BME280;7095;51.388;6.196;2022-07-23T02:59:32;53570.69;;;-145.32;100.00
14041;BME280;7095;51.388;6.196;2022-07-23T03:02:04;53546.81;;;-145.32;100.00
14041;BME280;7095;51.388;6.196;2022-07-23T03:04:32;53562.72;;;-145.32;100.00
14041;BME280;7095;51.388;6.196;2022-07-23T03:07:01;53538.88;;;-145.32;100.00
14041;BME280;7095;51.388;6.196;2022-07-23T03:09:29;53536.88;;;-145.32;100.00
14041;BME280;7095;51.388;6.196;2022-07-23T03:11:58;53534.88;;;-145.32;100.00
14041;BME280;7095;51.388;6.196;2022-07-23T03:14:26;53546.81;;;-145.32;100.00
14041;BME280;7095;51.388;6.196;2022-07-23T03:16:56;53530.91;;;-145.32;100.00
14041;BME280;7095;51.388;6.196;2022-07-23T03:19:28;53570.69;;;-145.32;100.00
14041;BME280;7095;51.388;6.196;2022-07-23T03:21:56;53600.50;;;-145.32;100.00
14041;BME280;7095;51.388;6.196;2022-07-23T03:24:25;53582.59;;;-145.32;100.00
14041;BME280;7095;51.388;6.196;2022-07-23T03:27:14;53562.72;;;-145.32;100.00
14041;BME280;7095;51.388;6.196;2022-07-23T03:29:43;53580.63;;;-145.32;100.00
14041;BME280;7095;51.388;6.196;2022-07-23T03:32:12;53554.78;;;-145.32;100.00
14041;BME280;7095;51.388;6.196;2022-07-23T03:34:42;53578.63;;;-145.32;100.00
14041;BME280;7095;51.388;6.196;2022-07-23T03:37:11;53580.63;;;-145.32;100.00
14041;BME280;7095;51.388;6.196;2022-07-23T03:39:40;53564.72;;;-145.32;100.00
14041;BME280;7095;51.388;6.196;2022-07-23T03:42:09;53570.69;;;-145.32;100.00
14041;BME280;7095;51.388;6.196;2022-07-23T03:44:38;53554.78;;;-145.32;100.00
14041;BME280;7095;51.388;6.196;2022-07-23T03:47:06;53562.72;;;-145.32;100.00
14041;BME280;7095;51.388;6.196;2022-07-23T03:49:35;53568.69;;;-145.32;100.00
14041;BME280;7095;51.388;6.196;2022-07-23T03:52:05;53566.69;;;-145.32;100.00
14041;BME280;7095;51.388;6.196;2022-07-23T03:54:34;53558.75;;;-145.32;100.00
14041;BME280;7095;51.388;6.196;2022-07-23T03:57:02;53562.72;;;-145.32;100.00
14041;BME280;7095;51.388;6.196;2022-07-23T03:59:32;53574.66;;;-145.32;100.00
14041;BME280;7095;51.388;6.196;2022-07-23T04:02:01;53556.75;;;-145.32;100.00
14041;BME280;7095;51.388;6.196;2022-07-23T04:04:31;53590.56;;;-145.32;100.00
14041;BME280;7095;51.388;6.196;2022-07-23T04:07:00;53572.66;;;-145.32;100.00
14041;BME280;7095;51.388;6.196;2022-07-23T04:09:32;53564.72;;;-145.32;100.00
14041;BME280;7095;51.388;6.196;2022-07-23T04:12:02;53584.59;;;-145.32;100.00
14041;BME280;7095;51.388;6.196;2022-07-23T04:14:31;53598.50;;;-145.32;100.00
14041;BME280;7095;51.388;6.196;2022-07-23T04:17:00;53554.78;;;-145.32;100.00
14041;BME280;7095;51.388;6.196;2022-07-23T04:19:28;53582.59;;;-145.32;100.00
14041;BME280;7095;51.388;6.196;2022-07-23T04:22:06;53578.63;;;-145.32;100.00
14041;BME280;7095;51.388;6.196;2022-07-23T04:24:37;53588.56;;;-145.32;100.00
14041;BME280;7095;51.388;6.196;2022-07-23T04:27:08;53574.66;;;-145.32;100.00
14041;BME280;7095;51.388;6.196;2022-07-23T04:29:36;53590.56;;;-145.32;100.00
14041;BME280;7095;51.388;6.196;2022-07-23T04:32:05;53556.75;;;-145.32;100.00
14041;BME280;7095;51.388;6.196;2022-07-23T04:34:34;53554.78;;;-145.32;100.00
14041;BME280;7095;51.388;6.196;2022-07-23T04:37:03;53570.69;;;-145.32;100.00
14041;BME280;7095;51.388;6.196;2022-07-23T04:39:32;53560.72;;;-145.32;100.00
14041;BME280;7095;51.388;6.196;2022-07-23T04:42:02;53592.53;;;-145.32;100.00
14041;BME280;7095;51.388;6.196;2022-07-23T04:44:34;53540.84;;;-145.32;100.00
14041;BME280;7095;51.388;6.196;2022-07-23T04:47:04;53558.75;;;-145.32;100.00
14041;BME280;7095;51.388;6.196;2022-07-23T04:49:34;53574.66;;;-145.32;100.00
14041;BME280;7095;51.388;6.196;2022-07-23T04:52:03;53582.59;;;-145.32;100.00
14041;BME280;7095;51.388;6.196;2022-07-23T04:54:32;53594.53;;;-145.32;100.00
14041;BME280;7095;51.388;6.196;2022-07-23T04:57:03;53582.59;;;-145.32;100.00
14041;BME280;7095;51.388;6.196;2022-07-23T04:59:31;53610.44;;;-145.32;100.00
14041;BME280;7095;51.388;6.196;2022-07-23T05:02:03;53578.63;;;-145.32;100.00
14041;BME280;7095;51.388;6.196;2022-07-23T05:04:32;53580.63;;;-145.32;100.00
14041;BME280;7095;51.388;6.196;2022-07-23T05:07:01;53582.59;;;-145.32;100.00
14041;BME280;7095;51.388;6.196;2022-07-23T05:09:30;53582.59;;;-145.32;100.00
14041;BME280;7095;51.388;6.196;2022-07-23T05:11:59;53570.69;;;-145.32;100.00
14041;BME280;7095;51.388;6.196;2022-07-23T05:14:32;53594.53;;;-145.32;100.00
14041;BME280;7095;51.388;6.196;2022-07-23T05:17:01;53596.53;;;-145.32;100.00
14041;BME280;7095;51.388;6.196;2022-07-23T05:19:31;53584.59;;;-145.32;100.00
14041;BME280;7095;51.388;6.196;2022-07-23T05:22:00;53588.56;;;-145.32;100.00
14041;BME280;7095;51.388;6.196;2022-07-23T05:24:29;53588.56;;;-145.32;100.00
14041;BME280;7095;51.388;6.196;2022-07-23T05:26:57;53568.69;;;-145.32;100.00
14041;BME280;7095;51.388;6.196;2022-07-23T05:29:26;53582.59;;;-145.32;100.00
14041;BME280;7095;51.388;6.196;2022-07-23T05:31:57;53590.56;;;-145.32;100.00
14041;BME280;7095;51.388;6.196;2022-07-23T05:34:32;53566.69;;;-145.32;100.00
14041;BME280;7095;51.388;6.196;2022-07-23T05:37:00;53558.75;;;-145.32;100.00
14041;BME280;7095;51.388;6.196;2022-07-23T05:39:32;53576.63;;;-145.32;100.00
14041;BME280;7095;51.388;6.196;2022-07-23T05:42:01;53576.63;;;-145.32;100.00
14041;BME280;7095;51.388;6.196;2022-07-23T05:44:29;53566.69;;;-145.32;100.00
14041;BME280;7095;51.388;6.196;2022-07-23T05:47:02;53568.69;;;-145.32;100.00
14041;BME280;7095;51.388;6.196;2022-07-23T05:49:31;53532.91;;;-145.32;100.00
14041;BME280;7095;51.388;6.196;2022-07-23T05:52:23;53542.84;;;-145.32;100.00
14041;BME280;7095;51.388;6.196;2022-07-23T05:55:14;53513.03;;;-145.32;100.00
14041;BME280;7095;51.388;6.196;2022-07-23T05:57:42;53556.75;;;-145.32;100.00
14041;BME280;7095;51.388;6.196;2022-07-23T06:00:11;53515.00;;;-145.32;100.00
14041;BME280;7095;51.388;6.196;2022-07-23T06:02:43;53520.97;;;-145.32;100.00
14041;BME280;7095;51.388;6.196;2022-07-23T06:05:13;53517.00;;;-145.32;100.00
14041;BME280;7095;51.388;6.196;2022-07-23T06:07:44;53493.13;;;-145.32;100.00
14041;BME280;7095;51.388;6.196;2022-07-23T06:10:14;53515.00;;;-145.32;100.00
14041;BME280;7095;51.388;6.196;2022-07-23T06:12:43;53517.00;;;-145.32;100.00
14041;BME280;7095;51.388;6.196;2022-07-23T06:15:12;53495.13;;;-145.32;100.00
14041;BME280;7095;51.388;6.196;2022-07-23T06:17:40;53503.06;;;-145.32;100.00
14041;BME280;7095;51.388;6.196;2022-07-23T06:20:11;53471.28;;;-145.32;100.00
14041;BME280;7095;51.388;6.196;2022-07-23T06:22:40;53481.22;;;-145.32;100.00
14041;BME280;7095;51.388;6.196;2022-07-23T06:25:09;53459.34;;;-145.32;100.00
14041;BME280;7095;51.388;6.196;2022-07-23T06:27:46;53469.28;;;-145.32;100.00
14041;BME280;7095;51.388;6.196;2022-07-23T06:30:15;53453.38;;;-145.32;100.00
14041;BME280;7095;51.388;6.196;2022-07-23T06:32:44;53491.16;;;-145.32;100.00
14041;BME280;7095;51.388;6.196;2022-07-23T06:35:16;53463.31;;;-145.32;100.00
14041;BME280;7095;51.388;6.196;2022-07-23T06:37:46;53473.25;;;-145.32;100.00
14041;BME280;7095;51.388;6.196;2022-07-23T06:40:16;53443.44;;;-145.32;100.00
14041;BME280;7095;51.388;6.196;2022-07-23T06:42:44;53449.41;;;-145.32;100.00
14041;BME280;7095;51.388;6.196;2022-07-23T06:45:21;53403.69;;;-145.32;100.00
14041;BME280;7095;51.388;6.196;2022-07-23T06:47:50;53415.59;;;-145.32;100.00
14041;BME280;7095;51.388;6.196;2022-07-23T06:50:20;53417.59;;;-145.32;100.00
14041;BME280;7095;51.388;6.196;2022-07-23T06:52:49;53417.59;;;-145.32;100.00
14041;BME280;7095;51.388;6.196;2022-07-23T06:55:18;53403.69;;;-145.32;100.00
14041;BME280;7095;51.388;6.196;2022-07-23T06:57:47;53387.78;;;-145.32;100.00
14041;BME280;7095;51.388;6.196;2022-07-23T07:00:16;53405.66;;;-145.32;100.00
14041;BME280;7095;51.388;6.196;2022-07-23T07:02:44;53399.69;;;-145.32;100.00
14041;BME280;7095;51.388;6.196;2022-07-23T07:05:13;53375.84;;;-145.32;100.00
14041;BME280;7095;51.388;6.196;2022-07-23T07:07:46;53383.78;;;-145.32;100.00
14041;BME280;7095;51.388;6.196;2022-07-23T07:10:14;53401.69;;;-145.32;100.00
14041;BME280;7095;51.388;6.196;2022-07-23T07:12:44;53379.81;;;-145.32;100.00
14041;BME280;7095;51.388;6.196;2022-07-23T07:15:13;53391.75;;;-145.32;100.00
14041;BME280;7095;51.388;6.196;2022-07-23T07:17:41;53363.91;;;-145.32;100.00
14041;BME280;7095;51.388;6.196;2022-07-23T07:20:10;53381.81;;;-145.32;100.00
14041;BME280;7095;51.388;6.196;2022-07-23T07:22:39;53375.84;;;-145.32;100.00
14041;BME280;7095;51.388;6.196;2022-07-23T07:25:10;53344.03;;;-145.32;100.00
14041;BME280;7095;51.388;6.196;2022-07-23T07:27:38;53359.94;;;-145.32;100.00
14041;BME280;7095;51.388;6.196;2022-07-23T07:30:11;53367.91;;;-145.32;100.00
14041;BME280;7095;51.388;6.196;2022-07-23T07:32:42;53352.00;;;-145.32;100.00
14041;BME280;7095;51.388;6.196;2022-07-23T07:35:26;53363.91;;;-145.32;100.00
14041;BME280;7095;51.388;6.196;2022-07-23T07:37:54;53375.84;;;-145.32;100.00
14041;BME280;7095;51.388;6.196;2022-07-23T07:40:25;53328.13;;;-145.32;100.00
14041;BME280;7095;51.388;6.196;2022-07-23T07:43:00;53338.06;;;-145.32;100.00
14041;BME280;7095;51.388;6.196;2022-07-23T07:45:30;53338.06;;;-145.32;100.00
14041;BME280;7095;51.388;6.196;2022-07-23T07:47:59;53334.09;;;-145.32;100.00
14041;BME280;7095;51.388;6.196;2022-07-23T07:50:27;53363.91;;;-145.32;100.00
14041;BME280;7095;51.388;6.196;2022-07-23T07:52:57;53312.22;;;-145.32;100.00
14041;BME280;7095;51.388;6.196;2022-07-23T07:55:27;53318.19;;;-145.32;100.00
14041;BME280;7095;51.388;6.196;2022-07-23T07:57:57;53324.16;;;-145.32;100.00
14041;BME280;7095;51.388;6.196;2022-07-23T08:00:29;53324.16;;;-145.32;100.00
14041;BME280;7095;51.388;6.196;2022-07-23T08:03:00;53342.06;;;-145.32;100.00
14041;BME280;7095;51.388;6.196;2022-07-23T08:05:30;53312.22;;;-145.32;100.00
14041;BME280;7095;51.388;6.196;2022-07-23T08:07:59;53328.13;;;-145.32;100.00
14041;BME280;7095;51.388;6.196;2022-07-23T08:10:29;53330.13;;;-145.32;100.00
14041;BME280;7095;51.388;6.196;2022-07-23T08:12:59;53306.28;;;-145.32;100.00
14041;BME280;7095;51.388;6.196;2022-07-23T08:15:29;53322.16;;;-145.32;100.00
14041;BME280;7095;51.388;6.196;2022-07-23T08:17:59;53288.38;;;-145.32;100.00
14041;BME280;7095;51.388;6.196;2022-07-23T08:20:28;53312.22;;;-145.32;100.00
14041;BME280;7095;51.388;6.196;2022-07-23T08:22:58;53318.19;;;-145.32;100.00
14041;BME280;7095;51.388;6.196;2022-07-23T08:25:30;53334.09;;;-145.32;100.00
14041;BME280;7095;51.388;6.196;2022-07-23T08:28:01;53334.09;;;-145.32;100.00
14041;BME280;7095;51.388;6.196;2022-07-23T08:30:31;53268.50;;;-145.32;100.00
14041;BME280;7095;51.388;6.196;2022-07-23T08:33:01;53320.19;;;-145.32;100.00
14041;BME280;7095;51.388;6.196;2022-07-23T08:35:36;53312.22;;;-145.32;100.00
14041;BME280;7095;51.388;6.196;2022-07-23T08:38:06;53336.09;;;-145.32;100.00
14041;BME280;7095;51.388;6.196;2022-07-23T08:40:39;53322.16;;;-145.32;100.00
14041;BME280;7095;51.388;6.196;2022-07-23T08:43:11;53284.41;;;-145.32;100.00
14041;BME280;7095;51.388;6.196;2022-07-23T08:45:42;53288.38;;;-145.32;100.00
14041;BME280;7095;51.388;6.196;2022-07-23T08:48:13;53296.31;;;-145.32;100.00
14041;BME280;7095;51.388;6.196;2022-07-23T08:50:44;53292.34;;;-145.32;100.00
14041;BME280;7095;51.388;6.196;2022-07-23T08:53:14;53294.34;;;-145.32;100.00
14041;BME280;7095;51.388;6.196;2022-07-23T08:55:45;53304.28;;;-145.32;100.00
14041;BME280;7095;51.388;6.196;2022-07-23T08:58:15;53292.34;;;-145.32;100.00
14041;BME280;7095;51.388;6.196;2022-07-23T09:00:44;53294.34;;;-145.32;100.00
14041;BME280;7095;51.388;6.196;2022-07-23T09:03:16;53304.28;;;-145.32;100.00
14041;BME280;7095;51.388;6.196;2022-07-23T09:05:46;53306.28;;;-145.32;100.00
14041;BME280;7095;51.388;6.196;2022-07-23T09:08:16;53268.50;;;-145.32;100.00
14041;BME280;7095;51.388;6.196;2022-07-23T09:10:55;53256.56;;;-145.32;100.00
14041;BME280;7095;51.388;6.196;2022-07-23T09:13:29;53240.66;;;-145.32;100.00
14041;BME280;7095;51.388;6.196;2022-07-23T09:16:00;53292.34;;;-145.32;100.00
14041;BME280;7095;51.388;6.196;2022-07-23T09:18:35;53258.56;;;-145.32;100.00
14041;BME280;7095;51.388;6.196;2022-07-23T09:21:13;53292.34;;;-145.32;100.00
14041;BME280;7095;51.388;6.196;2022-07-23T09:23:45;53304.28;;;-145.32;100.00
14041;BME280;7095;51.388;6.196;2022-07-23T09:26:26;53286.38;;;-145.32;100.00
14041;BME280;7095;51.388;6.196;2022-07-23T09:29:00;53260.53;;;-145.32;100.00
14041;BME280;7095;51.388;6.196;2022-07-23T09:31:41;53254.59;;;-145.32;100.00
14041;BME280;7095;51.388;6.196;2022-07-23T09:34:13;53258.56;;;-145.32;100.00
14041;BME280;7095;51.388;6.196;2022-07-23T09:36:42;53260.53;;;-145.32;100.00
14041;BME280;7095;51.388;6.196;2022-07-23T09:39:12;53248.63;;;-145.32;100.00
14041;BME280;7095;51.388;6.196;2022-07-23T09:41:43;53280.41;;;-145.32;100.00
14041;BME280;7095;51.388;6.196;2022-07-23T09:44:14;53250.59;;;-145.32;100.00
14041;BME280;7095;51.388;6.196;2022-07-23T09:46:46;53260.53;;;-145.32;100.00
14041;BME280;7095;51.388;6.196;2022-07-23T09:49:17;53248.63;;;-145.32;100.00
14041;BME280;7095;51.388;6.196;2022-07-23T09:51:49;53250.59;;;-145.32;100.00
14041;BME280;7095;51.388;6.196;2022-07-23T09:54:27;53244.63;;;-145.32;100.00
14041;BME280;7095;51.388;6.196;2022-07-23T09:57:03;53232.72;;;-145.32;100.00
14041;BME280;7095;51.388;6.196;2022-07-23T09:59:35;53272.47;;;-145.32;100.00
14041;BME280;7095;51.388;6.196;2022-07-23T10:02:06;53256.56;;;-145.32;100.00
14041;BME280;7095;51.388;6.196;2022-07-23T10:04:48;53242.66;;;-145.32;100.00
14041;BME280;7095;51.388;6.196;2022-07-23T10:07:27;53240.66;;;-145.32;100.00
14041;BME280;7095;51.388;6.196;2022-07-23T10:10:16;53264.53;;;-145.32;100.00
14041;BME280;7095;51.388;6.196;2022-07-23T10:13:06;53220.78;;;-145.32;100.00
14041;BME280;7095;51.388;6.196;2022-07-23T10:15:52;53268.50;;;-145.32;100.00
14041;BME280;7095;51.388;6.196;2022-07-23T10:18:21;53248.63;;;-145.32;100.00
14041;BME280;7095;51.388;6.196;2022-07-23T10:20:50;53244.63;;;-145.32;95.35
14041;BME280;7095;51.388;6.196;2022-07-23T10:23:22;53254.59;;;-145.32;90.92
14041;BME280;7095;51.388;6.196;2022-07-23T10:25:58;53214.81;;;-145.32;88.69
14041;BME280;7095;51.388;6.196;2022-07-23T10:28:51;53244.63;;;-145.32;83.91
14041;BME280;7095;51.388;6.196;2022-07-23T10:31:34;53232.72;;;-145.32;77.06
14041;BME280;7095;51.388;6.196;2022-07-23T10:34:34;53234.69;;;-145.32;84.57
14041;BME280;7095;51.388;6.196;2022-07-23T10:37:12;53216.81;;;-145.32;65.45
14041;BME280;7095;51.388;6.196;2022-07-23T10:39:48;53252.59;;;-145.32;78.94
14041;BME280;7095;51.388;6.196;2022-07-23T10:42:37;53202.91;;;-145.32;77.57
14041;BME280;7095;51.388;6.196;2022-07-23T10:45:29;53236.69;;;-145.32;73.48
14041;BME280;7095;51.388;6.196;2022-07-23T10:48:13;53224.75;;;-145.32;66.30
14041;BME280;7095;51.388;6.196;2022-07-23T10:50:44;53234.69;;;-145.32;69.13
14041;BME280;7095;51.388;6.196;2022-07-23T10:53:16;53187.00;;;-145.32;63.36
14041;BME280;7095;51.388;6.196;2022-07-23T10:55:50;53230.72;;;-145.32;61.43
14041;BME280;7095;51.388;6.196;2022-07-23T10:58:21;53212.84;;;-145.32;65.15
14041;BME280;7095;51.388;6.196;2022-07-23T11:00:52;53194.94;;;-145.32;63.65
14041;BME280;7095;51.388;6.196;2022-07-23T11:03:29;53192.94;;;-145.32;62.41
14041;BME280;7095;51.388;6.196;2022-07-23T11:06:00;53218.81;;;-145.32;62.89
14041;BME280;7095;51.388;6.196;2022-07-23T11:08:28;53206.88;;;-145.32;64.00
14041;BME280;7095;51.388;6.196;2022-07-23T11:11:09;53208.84;;;-145.32;59.74
14041;BME280;7095;51.388;6.196;2022-07-23T11:13:41;53216.81;;;-145.32;58.96
14041;BME280;7095;51.388;6.196;2022-07-23T11:16:41;53228.75;;;-145.32;60.77
14041;BME280;7095;51.388;6.196;2022-07-23T11:19:15;53194.94;;;-145.32;61.34
14041;BME280;7095;51.388;6.196;2022-07-23T11:21:50;53179.03;;;-145.32;62.51
14041;BME280;7095;51.388;6.196;2022-07-23T11:24:24;53210.84;;;-145.32;63.94
14041;BME280;7095;51.388;6.196;2022-07-23T11:26:58;53208.84;;;-145.32;60.08
14041;BME280;7095;51.388;6.196;2022-07-23T11:29:47;53208.84;;;-145.32;60.04
14041;BME280;7095;51.388;6.196;2022-07-23T11:32:32;53179.03;;;-145.32;62.04
14041;BME280;7095;51.388;6.196;2022-07-23T11:35:18;53169.09;;;-145.32;64.74
14041;BME280;7095;51.388;6.196;2022-07-23T11:37:47;53183.00;;;-145.32;62.28
14041;BME280;7095;51.388;6.196;2022-07-23T11:40:17;53145.25;;;-145.32;60.27
14041;BME280;7095;51.388;6.196;2022-07-23T11:42:57;53165.13;;;-145.32;50.07
14041;BME280;7095;51.388;6.196;2022-07-23T11:45:31;53147.22;;;-145.32;51.19
14041;BME280;7095;51.388;6.196;2022-07-23T11:48:02;53188.97;;;-145.32;49.95
14041;BME280;7095;51.388;6.196;2022-07-23T11:50:32;53181.03;;;-145.32;50.54
14041;BME280;7095;51.388;6.196;2022-07-23T11:53:01;53145.25;;;-145.32;50.43
14041;BME280;7095;51.388;6.196;2022-07-23T11:55:31;53179.03;;;-145.32;49.46
14041;BME280;7095;51.388;6.196;2022-07-23T11:58:00;53163.13;;;-145.32;48.59
14041;BME280;7095;51.388;6.196;2022-07-23T12:00:31;53163.13;;;-145.32;47.68
14041;BME280;7095;51.388;6.196;2022-07-23T12:03:08;53141.28;;;-145.32;46.30
14041;BME280;7095;51.388;6.196;2022-07-23T12:05:38;53151.22;;;-145.32;44.92
14041;BME280;7095;51.388;6.196;2022-07-23T12:08:09;53159.16;;;-145.32;43.11
14041;BME280;7095;51.388;6.196;2022-07-23T12:10:40;53141.28;;;-145.32;43.16
14041;BME280;7095;51.388;6.196;2022-07-23T12:13:11;53121.41;;;-145.32;42.74
14041;BME280;7095;51.388;6.196;2022-07-23T12:15:42;53133.31;;;-145.32;42.35
14041;BME280;7095;51.388;6.196;2022-07-23T12:18:14;53141.28;;;-145.32;40.03
14041;BME280;7095;51.388;6.196;2022-07-23T12:20:47;53131.34;;;-145.32;40.40
14041;BME280;7095;51.388;6.196;2022-07-23T12:23:18;53149.22;;;-145.32;38.98
14041;BME280;7095;51.388;6.196;2022-07-23T12:25:49;53127.34;;;-145.32;39.67
14041;BME280;7095;51.388;6.196;2022-07-23T12:28:20;53125.38;;;-145.32;39.93
14041;BME280;7095;51.388;6.196;2022-07-23T12:30:50;53119.41;;;-145.32;38.47
14041;BME280;7095;51.388;6.196;2022-07-23T12:33:25;53121.41;;;-145.32;37.41
14041;BME280;7095;51.388;6.196;2022-07-23T12:35:55;53139.28;;;-145.32;37.83
14041;BME280;7095;51.388;6.196;2022-07-23T12:38:26;53115.44;;;-145.32;36.91
14041;BME280;7095;51.388;6.196;2022-07-23T12:40:57;53133.31;;;-145.32;36.98
14041;BME280;7095;51.388;6.196;2022-07-23T12:43:27;53127.34;;;-145.32;37.38
14041;BME280;7095;51.388;6.196;2022-07-23T12:46:02;53115.44;;;-145.32;35.32
14041;BME280;7095;51.388;6.196;2022-07-23T12:48:34;53137.28;;;-145.32;36.00
14041;BME280;7095;51.388;6.196;2022-07-23T12:51:06;53133.31;;;-145.32;35.82
14041;BME280;7095;51.388;6.196;2022-07-23T12:53:38;53109.47;;;-145.32;35.73
14041;BME280;7095;51.388;6.196;2022-07-23T12:56:09;53117.41;;;-145.32;35.97
14041;BME280;7095;51.388;6.196;2022-07-23T12:59:05;53133.31;;;-145.32;35.24
14041;BME280;7095;51.388;6.196;2022-07-23T13:01:42;53097.53;;;-145.32;34.99
14041;BME280;7095;51.388;6.196;2022-07-23T13:04:19;53103.50;;;-145.32;35.23
14041;BME280;7095;51.388;6.196;2022-07-23T13:06:50;53117.41;;;-145.32;35.77